Time;durP1;ratioP1;P1;durP2;ratioP2;P2;SDS_P1;SDS_P2;PMS_P1;PMS_P2;Temp;Humidity;BMP_temperature;BMP_pressure;BME280_temperature;BME280_humidity;BME280_pressure;Samples;Min_cycle;Max_cycle;Signal;HPM_P1;HPM_P2
2021/10/19 00:01:53;;;;;;;10.47;7.97;;;;;;;12.87;90.11;101862.34;5113522;28;20034;-36
2021/10/19 00:04:18;;;;;;;11.40;8.32;;;;;;;12.86;90.31;101859.84;5113584;28;20517;-36
2021/10/19 00:06:44;;;;;;;9.97;7.80;;;;;;;12.90;90.15;101863.78;5114266;28;20038;-36
2021/10/19 00:09:09;;;;;;;12.52;7.90;;;;;;;12.96;90.54;101876.47;5113634;28;20293;-36
2021/10/19 00:11:35;;;;;;;12.33;8.87;;;;;;;12.93;90.72;101871.47;5096153;28;20043;-36
2021/10/19 00:14:00;;;;;;;12.75;8.27;;;;;;;12.98;90.54;101873.53;5113617;28;20041;-36
2021/10/19 00:16:25;;;;;;;9.82;8.18;;;;;;;12.97;90.49;101880.03;5114364;28;20048;-36
2021/10/19 00:18:51;;;;;;;11.05;8.10;;;;;;;12.92;90.64;101869.81;5113374;28;20023;-36
2021/10/19 00:21:16;;;;;;;10.33;7.90;;;;;;;13.01;90.86;101909.22;5113581;28;20159;-36
2021/10/19 00:23:41;;;;;;;12.30;9.00;;;;;;;13.00;90.96;101902.13;5113532;28;20365;-36
2021/10/19 00:26:07;;;;;;;10.30;7.87;;;;;;;12.98;90.98;101895.25;5114111;28;20350;-36
2021/10/19 00:28:32;;;;;;;13.93;9.27;;;;;;;12.93;91.10;101878.78;5113870;28;20023;-36
2021/10/19 00:30:57;;;;;;;11.57;9.23;;;;;;;13.00;91.33;101896.72;5113388;28;20348;-36
2021/10/19 00:33:22;;;;;;;10.60;8.43;;;;;;;13.02;91.23;101896.47;5116406;28;20253;-36
2021/10/19 00:35:48;;;;;;;11.47;9.07;;;;;;;12.99;91.79;101900.47;5117297;28;20468;-36
2021/10/19 00:38:13;;;;;;;10.88;7.97;;;;;;;13.02;91.55;101900.03;5117776;28;20027;-36
2021/10/19 00:40:39;;;;;;;11.10;8.70;;;;;;;12.79;91.88;101854.50;5117199;28;20039;-36
2021/10/19 00:43:05;;;;;;;9.40;8.37;;;;;;;12.99;92.09;101889.63;5118176;28;20249;-36
2021/10/19 00:45:31;;;;;;;13.25;8.88;;;;;;;13.00;92.86;101879.59;5117087;28;20023;-36
2021/10/19 00:47:56;;;;;;;12.45;8.43;;;;;;;13.00;93.13;101876.88;5117872;28;20080;-36
2021/10/19 00:50:22;;;;;;;12.40;9.13;;;;;;;12.92;93.63;101864.41;5117710;28;20140;-36
2021/10/19 00:52:48;;;;;;;12.18;8.73;;;;;;;12.93;94.07;101870.66;5116936;28;20367;-36
2021/10/19 00:55:14;;;;;;;11.20;9.13;;;;;;;13.00;94.22;101874.16;5117089;28;20024;-36
2021/10/19 00:57:40;;;;;;;11.50;8.30;;;;;;;12.97;94.92;101867.28;5117374;28;20049;-36
2021/10/19 01:00:08;;;;;;;11.93;8.55;;;;;;;12.93;95.48;101857.06;5116714;28;20019;-36
2021/10/19 01:02:35;;;;;;;11.95;9.82;;;;;;;12.92;95.23;101864.41;5117006;28;20102;-36
2021/10/19 01:05:00;;;;;;;12.00;9.05;;;;;;;12.95;95.78;101866.69;5116913;28;20024;-36
2021/10/19 01:07:26;;;;;;;12.65;9.90;;;;;;;12.94;96.37;101861.47;5117521;28;20465;-36
2021/10/19 01:09:51;;;;;;;12.23;9.50;;;;;;;12.94;96.20;101867.75;5116535;28;20517;-36
2021/10/19 01:12:17;;;;;;;11.70;9.27;;;;;;;12.93;96.53;101876.91;5116880;28;20056;-36
2021/10/19 01:14:42;;;;;;;;;;;;;;;12.96;95.51;101862.06;5116804;28;20023;-36
2021/10/19 01:17:11;;;;;;;11.47;8.97;;;;;;;12.87;97.01;101853.38;5116708;28;19907;-36
2021/10/19 01:19:37;;;;;;;11.25;9.73;;;;;;;12.92;97.49;101860.84;5116257;28;20456;-41
2021/10/19 01:22:04;;;;;;;14.30;10.03;;;;;;;12.84;98.25;101848.41;5116801;28;20020;-36
2021/10/19 01:24:30;;;;;;;11.65;9.43;;;;;;;12.85;98.28;101841.91;5116840;28;20266;-36
2021/10/19 01:26:55;;;;;;;11.55;9.57;;;;;;;12.89;98.16;101856.72;5116245;28;20030;-36
2021/10/19 01:29:21;;;;;;;12.45;9.30;;;;;;;12.88;98.24;101849.59;5116580;28;20028;-36
2021/10/19 01:31:54;;;;;;;13.20;10.38;;;;;;;12.91;98.40;101845.63;5116537;28;20034;-36
2021/10/19 01:34:20;;;;;;;11.13;9.13;;;;;;;12.89;98.86;101845.84;5116799;28;20042;-36
2021/10/19 01:36:46;;;;;;;11.55;8.98;;;;;;;12.88;98.65;101842.31;5117222;28;20027;-36
2021/10/19 01:39:12;;;;;;;13.52;9.23;;;;;;;12.89;99.12;101838.53;5117049;28;20055;-36
2021/10/19 01:41:39;;;;;;;11.02;8.98;;;;;;;12.90;99.25;101825.78;5116104;28;20055;-35
2021/10/19 01:44:04;;;;;;;12.98;9.65;;;;;;;12.92;100.00;101820.13;5115911;28;20093;-36
2021/10/19 01:46:30;;;;;;;10.80;8.68;;;;;;;12.92;99.99;101810.09;5116276;28;20020;-36
2021/10/19 01:48:56;;;;;;;10.60;8.77;;;;;;;12.78;99.95;101778.69;5115902;28;20015;-36
2021/10/19 01:51:23;;;;;;;11.10;9.50;;;;;;;12.87;100.00;101780.06;5116888;28;20317;-36
2021/10/19 01:53:49;;;;;;;10.25;8.95;;;;;;;12.91;100.00;101785.91;5116247;28;20443;-36
2021/10/19 01:56:14;;;;;;;10.63;8.98;;;;;;;12.95;100.00;101790.66;5116371;28;20030;-36
2021/10/19 01:58:40;;;;;;;11.00;9.37;;;;;;;12.97;100.00;101791.25;5115615;28;20045;-36
2021/10/19 02:01:05;;;;;;;12.03;9.40;;;;;;;12.99;100.00;101796.47;5115750;28;20033;-36
2021/10/19 02:03:30;;;;;;;10.87;9.13;;;;;;;12.99;100.00;101788.34;5115547;28;20024;-36
2021/10/19 02:05:55;;;;;;;12.53;9.10;;;;;;;12.98;100.00;101784.78;5116361;28;20027;-36
2021/10/19 02:08:21;;;;;;;11.37;9.33;;;;;;;13.01;100.00;101786.22;5116572;28;20023;-36
2021/10/19 02:10:47;;;;;;;11.60;9.10;;;;;;;13.02;100.00;101779.72;5116022;28;20020;-36
2021/10/19 02:13:13;;;;;;;13.07;9.13;;;;;;;13.03;100.00;101778.66;5115719;28;20055;-36
2021/10/19 02:15:38;;;;;;;;;;;;;;;13.05;100.00;101777.41;5115981;28;20058;-36
2021/10/19 02:18:05;;;;;;;15.10;9.85;;;;;;;12.99;100.00;101758.47;5115525;28;20352;-36
2021/10/19 02:20:31;;;;;;;13.30;10.25;;;;;;;13.08;100.00;101771.53;5115558;28;20024;-36
2021/10/19 02:22:56;;;;;;;11.82;10.30;;;;;;;13.10;100.00;101776.72;5115289;28;20375;-36
2021/10/19 02:25:22;;;;;;;14.07;10.25;;;;;;;13.11;100.00;101771.06;5115671;28;20108;-36
2021/10/19 02:27:47;;;;;;;13.18;10.13;;;;;;;13.10;100.00;101763.97;5116171;28;20027;-36
2021/10/19 02:30:14;;;;;;;10.98;9.88;;;;;;;13.14;100.00;101764.38;5115079;28;20137;-36
2021/10/19 02:32:40;;;;;;;12.52;11.23;;;;;;;13.14;100.00;101758.94;5115239;28;20020;-36
2021/10/19 02:35:06;;;;;;;;;;;;;;;13.17;100.00;101752.19;5115893;28;20026;-36
2021/10/19 02:37:32;;;;;;;13.00;9.85;;;;;;;13.17;100.00;101760.34;5115261;28;20015;-36
2021/10/19 02:39:57;;;;;;;13.40;10.97;;;;;;;13.18;100.00;101753.88;5114815;28;20487;-36
2021/10/19 02:42:22;;;;;;;12.40;11.10;;;;;;;13.11;100.00;101738.47;5114820;28;20125;-36
2021/10/19 02:44:48;;;;;;;13.20;11.37;;;;;;;13.06;100.00;101732.06;5115547;28;20115;-36
2021/10/19 02:47:13;;;;;;;12.70;10.17;;;;;;;13.18;100.00;101749.28;5115688;28;20254;-36
2021/10/19 02:49:38;;;;;;;12.03;10.73;;;;;;;13.17;100.00;101735.91;5114945;28;20038;-36
2021/10/19 02:52:04;;;;;;;13.37;11.40;;;;;;;13.17;100.00;101735.91;5115559;28;20102;-36
2021/10/19 02:54:29;;;;;;;13.68;10.98;;;;;;;13.19;100.00;101739.25;5114487;28;20019;-36
2021/10/19 02:56:55;;;;;;;12.47;10.83;;;;;;;13.17;100.00;101735.91;5114376;28;20217;-36
2021/10/19 02:59:20;;;;;;;14.67;11.57;;;;;;;13.15;100.00;101730.72;5115330;28;20285;-36
2021/10/19 03:01:46;;;;;;;15.67;11.80;;;;;;;13.10;100.00;101728.66;5115248;28;20032;-36
2021/10/19 03:04:11;;;;;;;11.82;10.35;;;;;;;13.12;100.00;101736.59;5114678;28;20023;-36
2021/10/19 03:06:36;;;;;;;14.60;10.80;;;;;;;12.99;100.00;101706.88;5114983;28;20027;-36
2021/10/19 03:09:02;;;;;;;14.70;11.60;;;;;;;13.12;100.00;101728.44;5114896;28;20025;-36
2021/10/19 03:11:27;;;;;;;16.42;10.77;;;;;;;13.11;100.00;101733.03;5114796;28;20283;-36
2021/10/19 03:13:52;;;;;;;12.90;10.67;;;;;;;13.09;100.00;101728.91;5114699;28;20023;-36
2021/10/19 03:16:18;;;;;;;13.30;11.27;;;;;;;13.11;100.00;101738.47;5114800;28;20043;-36
2021/10/19 03:18:44;;;;;;;14.57;10.38;;;;;;;13.02;100.00;101728.13;5114253;28;20284;-36
2021/10/19 03:21:10;;;;;;;13.43;10.75;;;;;;;13.11;100.00;101732.22;5115136;28;20032;-36
2021/10/19 03:23:36;;;;;;;14.40;11.45;;;;;;;13.08;100.00;101733.50;5114306;28;20371;-36
2021/10/19 03:26:03;;;;;;;13.50;10.73;;;;;;;13.00;100.00;101713.97;5114221;28;20031;-36
2021/10/19 03:28:28;;;;;;;14.02;10.15;;;;;;;13.07;100.00;101725.56;5114170;28;20451;-36
2021/10/19 03:30:53;;;;;;;13.90;11.00;;;;;;;13.07;100.00;101723.69;5114194;28;20076;-36
2021/10/19 03:33:19;;;;;;;15.00;11.60;;;;;;;13.05;100.00;101723.09;5114358;28;20032;-36
2021/10/19 03:35:44;;;;;;;13.43;10.70;;;;;;;13.06;100.00;101715.78;5113813;28;20452;-36
2021/10/19 03:38:09;;;;;;;13.30;11.70;;;;;;;13.02;100.00;101703.69;5114264;28;20375;-36
2021/10/19 03:40:35;;;;;;;12.57;10.97;;;;;;;13.07;100.00;101715.53;5114512;28;20389;-36
2021/10/19 03:43:00;;;;;;;12.20;10.83;;;;;;;13.06;100.00;101704.91;5114498;28;20412;-36
2021/10/19 03:45:25;;;;;;;13.13;11.40;;;;;;;13.06;100.00;101696.78;5113954;28;20257;-36
2021/10/19 03:47:51;;;;;;;14.47;11.37;;;;;;;13.05;100.00;101689.69;5113947;28;20452;-36
2021/10/19 03:50:16;;;;;;;13.50;11.23;;;;;;;13.09;100.00;101696.31;5114098;28;20344;-36
2021/10/19 03:52:41;;;;;;;13.15;11.80;;;;;;;13.05;100.00;101700.53;5114301;28;20023;-35
2021/10/19 03:55:08;;;;;;;14.57;11.70;;;;;;;13.02;100.00;101695.56;5096215;28;20034;-36
2021/10/19 03:57:33;;;;;;;15.15;12.02;;;;;;;13.09;100.00;101699.88;5113433;28;20161;-36
2021/10/19 03:59:59;;;;;;;16.83;12.33;;;;;;;12.96;100.00;101675.56;5114119;28;20405;-36
2021/10/19 04:02:25;;;;;;;15.60;11.50;;;;;;;13.11;100.00;101695.03;5114169;28;20309;-36
2021/10/19 04:04:50;;;;;;;14.00;12.07;;;;;;;13.12;100.00;101706.72;5113600;28;20122;-36
2021/10/19 04:07:16;;;;;;;12.67;11.37;;;;;;;13.09;100.00;101705.28;5113511;28;20099;-36
2021/10/19 04:09:41;;;;;;;12.85;11.45;;;;;;;13.00;100.00;101684.09;5113797;28;20062;-36
2021/10/19 04:12:08;;;;;;;14.43;12.93;;;;;;;13.12;100.00;101712.97;5113504;28;20027;-36
2021/10/19 04:14:34;;;;;;;15.45;11.77;;;;;;;13.14;100.00;101705.44;5113428;28;20030;-36
2021/10/19 04:17:00;;;;;;;13.55;12.13;;;;;;;13.15;100.00;101712.53;5114100;28;20044;-36
2021/10/19 04:19:25;;;;;;;14.18;11.63;;;;;;;13.16;100.00;101713.34;5113304;28;20153;-36
2021/10/19 04:21:51;;;;;;;13.68;12.27;;;;;;;13.17;100.00;101715.00;5113866;28;20027;-36
2021/10/19 04:24:16;;;;;;;15.50;12.63;;;;;;;13.16;100.00;101713.34;5113451;28;20024;-36
2021/10/19 04:26:43;;;;;;;14.48;12.27;;;;;;;13.19;100.00;101712.91;5113462;28;20534;-36
2021/10/19 04:29:09;;;;;;;14.75;13.20;;;;;;;13.16;100.00;101716.06;5112940;28;20136;-36
2021/10/19 04:31:37;;;;;;;15.55;13.23;;;;;;;13.12;100.00;101707.53;5113111;28;20413;-36
2021/10/19 04:34:03;;;;;;;15.93;14.10;;;;;;;13.19;100.00;101722.94;5113245;28;20115;-36
2021/10/19 04:36:28;;;;;;;;;;;;;;;13.23;100.00;101716.03;5114428;28;20098;-36
2021/10/19 04:38:53;;;;;;;16.80;13.50;;;;;;;13.14;100.00;101702.72;5113414;28;20089;-36
2021/10/19 04:41:19;;;;;;;15.30;13.67;;;;;;;13.12;100.00;101696.69;5113353;28;20778;-36
2021/10/19 04:43:44;;;;;;;15.90;13.82;;;;;;;13.24;100.00;101712.25;5113541;28;20111;-36
2021/10/19 04:46:10;;;;;;;17.10;15.23;;;;;;;13.22;100.00;101707.03;5114081;28;20028;-36
2021/10/19 04:48:35;;;;;;;18.85;14.95;;;;;;;13.24;100.00;101712.25;5113061;28;20035;-36
2021/10/19 04:51:01;;;;;;;17.02;13.95;;;;;;;13.23;100.00;101724.19;5113654;28;20028;-36
2021/10/19 04:53:26;;;;;;;16.05;14.45;;;;;;;13.26;100.00;101729.16;5113289;28;20028;-36
2021/10/19 04:55:51;;;;;;;16.73;14.97;;;;;;;13.26;100.00;101723.72;5113061;28;20463;-36
2021/10/19 04:58:17;;;;;;;18.57;14.93;;;;;;;13.22;100.00;101711.66;5113661;28;20440;-36
2021/10/19 05:00:43;;;;;;;17.20;14.90;;;;;;;13.26;100.00;101715.56;5113239;28;20737;-36
2021/10/19 05:03:09;;;;;;;15.73;14.23;;;;;;;13.27;100.00;101714.50;5113267;28;20023;-36
2021/10/19 05:05:34;;;;;;;17.63;15.43;;;;;;;13.19;100.00;101699.34;5113274;28;20100;-36
2021/10/19 05:08:00;;;;;;;18.37;15.23;;;;;;;13.29;100.00;101717.84;5113509;28;20088;-37
2021/10/19 05:10:25;;;;;;;17.70;15.20;;;;;;;13.29;100.00;101715.94;5112937;28;20024;-36
2021/10/19 05:12:50;;;;;;;16.48;14.77;;;;;;;13.22;100.00;101692.63;5113181;28;20288;-36
2021/10/19 05:15:16;;;;;;;17.23;15.43;;;;;;;13.32;100.00;101703.78;5113024;28;20036;-36
2021/10/19 05:17:44;;;;;;;16.27;14.60;;;;;;;13.31;100.00;101705.69;5113585;28;20028;-36
2021/10/19 05:20:09;;;;;;;17.25;15.20;;;;;;;13.31;100.00;101702.97;5116228;28;20023;-36
2021/10/19 05:22:35;;;;;;;17.25;15.45;;;;;;;13.26;100.00;101680.25;5117333;28;20035;-36
2021/10/19 05:25:00;;;;;;;17.40;15.57;;;;;;;13.33;100.00;101683.75;5116311;28;20024;-36
2021/10/19 05:27:26;;;;;;;16.90;15.07;;;;;;;13.34;100.00;101683.50;5116404;28;20050;-36
2021/10/19 05:29:51;;;;;;;17.03;15.13;;;;;;;13.36;100.00;101691.41;5116781;28;20034;-36
2021/10/19 05:32:17;;;;;;;17.10;15.37;;;;;;;13.35;100.00;101677.00;5116308;28;20454;-36
2021/10/19 05:34:42;;;;;;;18.15;15.07;;;;;;;13.36;100.00;101675.09;5116459;28;20797;-36
2021/10/19 05:37:08;;;;;;;16.33;14.63;;;;;;;13.38;100.00;101683.88;5099068;28;20023;-36
2021/10/19 05:39:34;;;;;;;16.65;14.95;;;;;;;13.39;100.00;101683.63;5117519;28;20023;-36
2021/10/19 05:41:59;;;;;;;15.45;13.77;;;;;;;13.36;100.00;101685.97;5117257;28;20038;-36
2021/10/19 05:44:26;;;;;;;16.63;13.82;;;;;;;13.41;100.00;101694.28;5116373;28;20025;-36
2021/10/19 05:46:51;;;;;;;18.40;15.30;;;;;;;13.42;100.00;101687.81;5116189;28;20444;-36
2021/10/19 05:49:16;;;;;;;17.13;15.32;;;;;;;13.43;100.00;101686.75;5116155;28;20175;-36
2021/10/19 05:51:43;;;;;;;15.67;14.03;;;;;;;13.44;100.00;101676.69;5098275;28;20418;-36
2021/10/19 05:54:09;;;;;;;17.20;15.45;;;;;;;13.44;100.00;101677.53;5116034;28;20063;-36
2021/10/19 05:56:34;;;;;;;17.00;14.87;;;;;;;13.45;100.00;101673.75;5116118;28;20063;-36
2021/10/19 05:58:59;;;;;;;16.00;14.40;;;;;;;13.45;100.00;101670.19;5116165;28;20284;-36
2021/10/19 06:01:25;;;;;;;16.70;15.00;;;;;;;13.45;100.00;101672.91;5116281;28;20030;-37
2021/10/19 06:03:50;;;;;;;16.15;14.55;;;;;;;13.49;100.00;101674.13;5116154;28;20408;-36
2021/10/19 06:06:17;;;;;;;16.53;14.70;;;;;;;13.51;100.00;101691.84;5116540;28;20053;-36
2021/10/19 06:08:43;;;;;;;16.80;14.85;;;;;;;13.52;100.00;101689.97;5116403;28;20356;-36
2021/10/19 06:11:08;;;;;;;15.82;14.18;;;;;;;13.53;100.00;101691.63;5115941;28;20469;-36
2021/10/19 06:13:34;;;;;;;18.05;14.65;;;;;;;13.53;100.00;101689.72;5115610;28;20051;-36
2021/10/19 06:15:59;;;;;;;15.93;14.20;;;;;;;13.56;100.00;101693.84;5116105;28;20130;-36
2021/10/19 06:18:26;;;;;;;15.60;14.00;;;;;;;13.56;100.00;101691.97;5116482;28;20059;-36
2021/10/19 06:20:52;;;;;;;15.18;13.57;;;;;;;13.57;100.00;101692.81;5116192;28;20067;-36
2021/10/19 06:23:18;;;;;;;16.33;13.25;;;;;;;13.56;100.00;101691.97;5115926;28;20535;-36
2021/10/19 06:25:44;;;;;;;16.30;14.02;;;;;;;13.58;100.00;101675.47;5115502;28;20103;-36
2021/10/19 06:28:10;;;;;;;14.40;13.00;;;;;;;13.61;100.00;101683.94;5115527;28;20044;-36
2021/10/19 06:30:35;;;;;;;15.90;13.63;;;;;;;13.61;100.00;101688.56;5116131;28;20058;-36
2021/10/19 06:33:01;;;;;;;15.37;13.13;;;;;;;13.54;100.00;101672.34;5115686;28;20027;-36
2021/10/19 06:35:26;;;;;;;15.88;14.15;;;;;;;13.49;100.00;101655.09;5114975;28;20035;-36
2021/10/19 06:37:52;;;;;;;15.07;13.55;;;;;;;13.65;100.00;101679.72;5115580;28;20048;-36
2021/10/19 06:40:17;;;;;;;17.33;13.52;;;;;;;13.59;100.00;101663.53;5115249;28;20019;-36
2021/10/19 06:42:43;;;;;;;15.40;13.80;;;;;;;13.57;100.00;101646.63;5115549;28;20128;-36
2021/10/19 06:45:10;;;;;;;18.65;14.30;;;;;;;13.50;100.00;101649.41;5115133;28;20015;-36
2021/10/19 06:47:35;;;;;;;14.20;12.60;;;;;;;13.64;100.00;101663.66;5115110;28;20027;-36
2021/10/19 06:50:01;;;;;;;15.38;13.75;;;;;;;13.75;100.00;101691.94;5114691;28;20024;-36
2021/10/19 06:52:28;;;;;;;;;;;;;;;13.77;100.00;101687.09;5115767;28;20407;-36
2021/10/19 06:54:54;;;;;;;;;;;;;;;13.79;100.00;101679.53;5115153;28;19995;-36
2021/10/19 06:57:19;;;;;;;15.63;12.48;;;;;;;13.83;100.00;101683.44;5115240;28;19918;-36
2021/10/19 06:59:44;;;;;;;15.83;13.23;;;;;;;13.83;100.00;101680.72;5114778;28;20028;-36
2021/10/19 07:02:10;;;;;;;16.60;13.40;;;;;;;13.83;100.00;101686.16;5115217;28;20248;-36
2021/10/19 07:04:37;;;;;;;17.20;13.80;;;;;;;13.85;100.00;101684.84;5114559;28;20019;-36
2021/10/19 07:07:02;;;;;;;17.75;15.23;;;;;;;13.84;100.00;101674.22;5115022;28;20295;-36
2021/10/19 07:09:27;;;;;;;16.25;14.00;;;;;;;13.86;100.00;101674.84;5115265;28;20348;-36
2021/10/19 07:11:53;;;;;;;15.17;13.53;;;;;;;13.91;100.00;101674.97;5114692;28;20068;-36
2021/10/19 07:14:18;;;;;;;16.45;14.57;;;;;;;13.91;100.00;101678.50;5114335;28;20081;-36
2021/10/19 07:16:44;;;;;;;15.75;12.75;;;;;;;13.90;100.00;101673.28;5115041;28;20044;-36
2021/10/19 07:19:09;;;;;;;15.63;13.38;;;;;;;13.93;100.00;101670.13;5114508;28;20034;-36
2021/10/19 07:21:38;;;;;;;18.33;13.38;;;;;;;13.88;100.00;101661.84;5115069;28;20028;-36
2021/10/19 07:24:04;;;;;;;15.02;13.07;;;;;;;13.88;100.00;101665.38;5114143;28;20016;-36
2021/10/19 07:26:29;;;;;;;15.23;13.63;;;;;;;13.99;100.00;101682.78;5114951;28;20024;-36
2021/10/19 07:28:55;;;;;;;17.37;13.97;;;;;;;14.02;100.00;101684.22;5114394;28;20042;-36
2021/10/19 07:31:20;;;;;;;15.97;12.43;;;;;;;14.06;100.00;101686.22;5114851;28;20105;-36
2021/10/19 07:33:45;;;;;;;15.53;13.07;;;;;;;14.08;100.00;101688.72;5114836;28;20293;-36
2021/10/19 07:36:11;;;;;;;15.13;12.83;;;;;;;14.11;100.00;101689.06;5114235;28;20031;-36
2021/10/19 07:38:37;;;;;;;15.73;12.82;;;;;;;14.09;100.00;101674.03;5114028;28;20418;-36
2021/10/19 07:41:02;;;;;;;14.02;12.20;;;;;;;14.12;100.00;101682.56;5113805;28;20016;-36
2021/10/19 07:43:27;;;;;;;13.82;12.25;;;;;;;14.08;100.00;101673.22;5114139;28;20023;-36
2021/10/19 07:45:53;;;;;;;15.25;13.55;;;;;;;14.19;100.00;101696.06;5114123;28;20026;-36
2021/10/19 07:48:18;;;;;;;13.50;11.40;;;;;;;14.19;100.00;101696.06;5114315;28;20159;-36
2021/10/19 07:50:47;;;;;;;13.77;11.70;;;;;;;14.25;100.00;101694.28;5114046;28;20448;-36
2021/10/19 07:53:14;;;;;;;12.65;11.35;;;;;;;14.27;100.00;101700.34;5113998;28;20085;-36
2021/10/19 07:55:40;;;;;;;12.48;11.13;;;;;;;14.28;100.00;101686.47;5113868;28;20032;-36
2021/10/19 07:58:05;;;;;;;13.43;11.60;;;;;;;14.32;100.00;101703.19;5113935;28;20412;-36
2021/10/19 08:00:31;;;;;;;12.43;10.55;;;;;;;14.36;100.00;101699.75;5113492;28;20015;-36
2021/10/19 08:02:57;;;;;;;12.90;10.40;;;;;;;14.31;100.00;101682.47;5113601;28;20379;-36
2021/10/19 08:05:23;;;;;;;11.98;10.15;;;;;;;14.41;100.00;101699.03;5113753;28;20341;-36
2021/10/19 08:07:51;;;;;;;10.55;9.45;;;;;;;14.28;100.00;101670.16;5113815;28;20031;-36
2021/10/19 08:10:19;;;;;;;11.00;9.30;;;;;;;14.43;100.00;101699.63;5113891;28;20107;-36
2021/10/19 08:12:44;;;;;;;10.13;9.15;;;;;;;14.37;100.00;101673.38;5113479;28;20050;-36
2021/10/19 08:15:11;;;;;;;11.13;9.18;;;;;;;14.50;100.00;101691.41;5113777;28;20447;-36
2021/10/19 08:17:36;;;;;;;9.85;8.77;;;;;;;14.51;100.00;101680.25;5114193;28;20023;-36
2021/10/19 08:20:02;;;;;;;9.80;8.75;;;;;;;14.55;100.00;101686.91;5113260;28;20471;-36
2021/10/19 08:22:29;;;;;;;9.40;8.50;;;;;;;14.63;100.00;101697.41;5113663;28;20107;-36
2021/10/19 08:24:55;;;;;;;9.18;8.27;;;;;;;14.63;100.00;101693.84;5113235;28;20031;-36
2021/10/19 08:27:22;;;;;;;8.02;7.22;;;;;;;14.62;100.00;101695.75;5113516;28;20039;-36
2021/10/19 08:29:48;;;;;;;8.50;7.65;;;;;;;14.66;100.00;101691.50;5113179;28;20518;-36
2021/10/19 08:32:13;;;;;;;8.40;7.50;;;;;;;14.70;100.00;101696.47;5113843;28;20055;-36
2021/10/19 08:34:38;;;;;;;8.20;7.40;;;;;;;14.64;100.00;101682.75;5113508;28;20273;-36
2021/10/19 08:37:04;;;;;;;7.50;6.80;;;;;;;14.73;100.00;101685.09;5113625;28;20023;-36
2021/10/19 08:39:29;;;;;;;6.63;6.03;;;;;;;14.72;100.00;101683.44;5113481;28;20734;-36
2021/10/19 08:41:55;;;;;;;6.68;6.05;;;;;;;14.68;100.00;101673.03;5113551;28;20087;-36
2021/10/19 08:44:20;;;;;;;6.05;5.45;;;;;;;14.72;100.00;101686.16;5113513;28;20137;-36
2021/10/19 08:46:45;;;;;;;6.10;5.50;;;;;;;14.76;100.00;101693.63;5113262;28;20153;-36
2021/10/19 08:49:11;;;;;;;5.68;5.10;;;;;;;14.68;100.00;101666.75;5113648;28;20266;-36
2021/10/19 08:51:39;;;;;;;5.78;5.20;;;;;;;14.76;100.00;101681.91;5113385;28;20028;-36
2021/10/19 08:54:07;;;;;;;7.20;4.70;;;;;;;14.79;100.00;101695.06;5115067;28;20030;-36
2021/10/19 08:56:37;;;;;;;4.80;4.28;;;;;;;14.77;100.00;101686.28;5117646;28;20031;-36
2021/10/19 08:59:02;;;;;;;6.03;5.43;;;;;;;14.80;100.00;101691.25;5117621;28;20022;-36
2021/10/19 09:01:39;;;;;;;5.53;5.00;;;;;;;14.78;100.00;101693.38;5117280;28;20020;-36
2021/10/19 09:04:09;;;;;;;4.95;4.28;;;;;;;14.82;100.00;101694.56;5117780;28;20433;-36
2021/10/19 09:06:36;;;;;;;5.00;4.50;;;;;;;14.84;100.00;101687.00;5116913;28;20603;-36
2021/10/19 09:09:08;;;;;;;5.20;4.70;;;;;;;14.87;100.00;101698.22;5117097;28;20034;-36
2021/10/19 09:11:38;;;;;;;6.50;5.88;;;;;;;14.89;100.00;101695.28;5117073;28;20085;-36
2021/10/19 09:14:03;;;;;;;6.55;5.03;;;;;;;14.87;100.00;101692.78;5116606;28;20069;-36
2021/10/19 09:17:00;;;;;;;5.68;5.03;;;;;;;14.92;100.00;101692.06;5117298;28;20079;-36
2021/10/19 09:19:27;;;;;;;5.50;5.00;;;;;;;14.95;100.00;101691.59;5034227;28;20042;-36
2021/10/19 09:21:55;;;;;;;6.10;5.50;;;;;;;14.93;100.00;101689.13;5033921;28;20025;-36
2021/10/19 09:24:28;;;;;;;6.32;5.43;;;;;;;14.98;100.00;101688.38;5033989;28;20051;-36
2021/10/19 09:27:02;;;;;;;6.03;5.35;;;;;;;14.99;100.00;101689.22;5033751;28;20462;-36
2021/10/19 09:29:46;;;;;;;6.45;5.05;;;;;;;14.99;100.00;101690.06;5033788;28;20049;-36
2021/10/19 09:32:13;;;;;;;6.55;5.90;;;;;;;15.03;100.00;101682.22;5034017;28;20112;-36
2021/10/19 09:34:39;;;;;;;6.97;5.97;;;;;;;15.05;100.00;101696.44;5033602;28;20025;-36
2021/10/19 09:37:06;;;;;;;9.07;6.57;;;;;;;15.06;100.00;101693.44;5034319;28;20545;-36
2021/10/19 09:39:49;;;;;;;9.75;7.95;;;;;;;15.02;100.00;101677.84;5033350;28;20462;-36
2021/10/19 09:42:27;;;;;;;9.70;6.90;;;;;;;15.12;100.00;101700.66;5033895;28;20037;-36
2021/10/19 09:45:00;;;;;;;9.65;7.50;;;;;;;15.12;100.00;101706.09;5033316;28;20040;-36
2021/10/19 09:47:27;;;;;;;9.40;7.45;;;;;;;15.17;100.00;101706.22;5033912;28;20056;-36
2021/10/19 09:49:54;;;;;;;9.25;8.30;;;;;;;15.20;100.00;101713.91;5033439;28;20056;-36
2021/10/19 09:52:20;;;;;;;10.25;8.80;;;;;;;15.13;100.00;101690.63;5033276;28;20359;-36
2021/10/19 09:54:50;;;;;;;10.80;8.45;;;;;;;15.25;100.00;101705.03;5040002;28;20028;-36
2021/10/19 09:57:16;;;;;;;10.88;9.00;;;;;;;15.19;100.00;101692.38;5116567;28;20103;-37
2021/10/19 09:59:42;;;;;;;12.73;9.88;;;;;;;15.28;100.00;101692.81;5115980;28;20102;-37
2021/10/19 10:02:11;;;;;;;12.15;10.68;;;;;;;15.35;100.00;101705.22;5097450;28;20043;-36
2021/10/19 10:04:37;;;;;;;13.73;10.55;;;;;;;15.36;100.00;101697.88;5115260;28;20023;-36
2021/10/19 10:07:05;;;;;;;;;;;;;;;15.39;100.00;101700.13;5116889;28;20020;-36
2021/10/19 10:09:30;;;;;;;12.93;9.45;;;;;;;15.31;100.00;101689.59;5115819;28;19908;-36
2021/10/19 10:11:57;;;;;;;13.52;10.30;;;;;;;15.27;100.00;101680.25;5116009;28;20098;-37
2021/10/19 10:14:22;;;;;;;12.88;10.93;;;;;;;15.40;100.00;101697.16;5115977;28;20063;-37
2021/10/19 10:16:49;;;;;;;14.23;11.13;;;;;;;15.47;100.00;101702.47;5116102;28;20071;-37
2021/10/19 10:19:17;;;;;;;15.70;10.82;;;;;;;15.54;100.00;101696.88;5115197;28;20444;-36
2021/10/19 10:21:51;;;;;;;12.43;10.70;;;;;;;15.42;100.00;101677.81;5116458;28;20352;-36
2021/10/19 10:24:27;;;;;;;13.25;11.25;;;;;;;15.62;100.00;101699.22;5116282;28;20355;-36
2021/10/19 10:27:08;;;;;;;15.70;11.40;;;;;;;15.51;100.00;101672.81;5115780;28;20379;-36
2021/10/19 10:29:48;;;;;;;14.80;12.00;;;;;;;15.66;100.00;101695.78;5115730;28;20027;-36
2021/10/19 10:32:28;;;;;;;13.70;12.15;;;;;;;15.71;100.00;101689.56;5115455;28;20034;-37
2021/10/19 10:35:00;;;;;;;15.35;12.45;;;;;;;15.65;100.00;101679.66;5115430;28;20106;-36
2021/10/19 10:37:38;;;;;;;17.27;12.20;;;;;;;15.75;100.00;101693.47;5115904;28;20024;-36
2021/10/19 10:40:05;;;;;;;15.40;11.75;;;;;;;15.78;100.00;101694.91;5116080;28;20055;-36
2021/10/19 10:42:39;;;;;;;15.70;12.65;;;;;;;15.62;100.00;101669.22;5115552;28;20043;-36
2021/10/19 10:45:23;;;;;;;12.40;11.10;;;;;;;15.84;100.00;101689.28;5115397;28;20372;-36
2021/10/19 10:48:01;;;;;;;14.40;11.93;;;;;;;15.84;100.00;101694.72;5115380;28;20024;-36
2021/10/19 10:50:28;;;;;;;15.13;12.05;;;;;;;15.84;100.00;101688.47;5115001;28;20024;-36
2021/10/19 10:53:01;;;;;;;15.25;13.00;;;;;;;15.87;100.00;101693.44;5115078;28;20023;-36
2021/10/19 10:55:31;;;;;;;14.57;12.63;;;;;;;15.87;100.00;101690.72;5115304;28;20026;-36
2021/10/19 10:57:56;;;;;;;14.85;13.00;;;;;;;15.90;100.00;101680.09;5115242;28;20047;-36
2021/10/19 11:00:25;;;;;;;14.30;12.43;;;;;;;15.90;100.00;101685.56;5114941;28;20062;-36
2021/10/19 11:03:06;;;;;;;15.85;13.15;;;;;;;15.91;100.00;101687.25;5114601;28;20020;-36
2021/10/19 11:05:31;;;;;;;16.27;13.73;;;;;;;15.94;100.00;101681.28;5115111;28;20073;-37
2021/10/19 11:07:57;;;;;;;17.67;14.65;;;;;;;15.85;100.00;101668.28;5115204;28;20024;-36